Latest Weather Observations for Latrobe Valley

IDV60801

Issued at 4:52 am EDT Tuesday 19 October 2021 (issued every 10 minutes, with the page automatically refreshed every 10 minutes)

About weather observations | Map of weather stations | Latest weather observations for VIC | Other Formats
Station Details ID: 085280 Name: LATROBE VALLEY AIRPORT Lat: -38.21 Lon: 146.47 Height: 55.7 m
Data from the previous 72 hours. | See also: Recent months at Latrobe Valley
Date/Time
EDT
Temp
°C
App
Temp
°C
Dew
Point
°C
Rel
Hum
%
Delta-T
°C
Wind Press
QNH
hPa
Press
MSL
hPa
Rain since
9am
mm
Dir  Spd
km/h
Gust
km/h
Spd
kts
Gust
kts
19/04:49am 8.3 6.0 7.5 95 0.4 W 9 13 5 7 1018.6 1018.6 3.8
19/04:31am 8.9 6.4 8.1 95 0.4 W 11 15 6 8 1018.6 1018.6 3.8
19/04:30am 8.9 6.4 8.1 95 0.4 W 11 15 6 8 1018.6 1018.6 3.8
19/04:26am 9.0 6.5 8.2 95 0.4 W 11 13 6 7 1018.6 1018.6 3.8
19/04:16am 8.9 6.8 8.1 95 0.4 WSW 9 13 5 7 1018.6 1018.6 3.8
19/04:13am 8.9 6.8 8.1 95 0.4 WSW 9 13 5 7 1018.6 1018.6 3.8
19/04:06am 9.0 6.5 8.2 95 0.4 W 11 15 6 8 1018.5 1018.5 3.8
19/04:00am 9.2 7.1 8.4 95 0.4 W 9 15 5 8 1018.5 1018.5 3.8
19/03:34am 9.5 7.9 8.7 95 0.4 WSW 7 11 4 6 1018.4 1018.4 3.4
19/03:30am 9.5 7.5 8.7 95 0.4 WSW 9 11 5 6 1018.3 1018.3 3.2
19/03:20am 9.4 7.4 8.6 95 0.4 SW 9 11 5 6 1018.3 1018.3 3.2
19/03:00am 9.1 7.0 8.2 94 0.4 WSW 9 11 5 6 1018.2 1018.2 3.2
19/02:30am 8.9 6.7 7.8 93 0.5 WSW 9 13 5 7 1018.2 1018.2 3.2
19/02:00am 9.9 7.6 9.0 94 0.4 W 11 17 6 9 1018.2 1018.2 3.2
19/01:40am 9.9 7.2 9.0 94 0.4 WSW 13 15 7 8 1018.1 1018.1 3.2
19/01:30am 9.9 7.2 9.0 94 0.4 W 13 19 7 10 1018.1 1018.1 3.2
19/01:25am 10.1 7.5 9.2 94 0.4 WSW 13 19 7 10 1018.1 1018.1 3.2
19/01:24am 10.1 7.9 9.2 94 0.4 WSW 11 19 6 10 1018.1 1018.1 3.2
19/01:00am 9.9 7.6 9.0 94 0.4 W 11 15 6 8 1018.0 1018.0 3.2
19/12:30am 10.3 7.0 9.4 94 0.4 W 17 20 9 11 1017.9 1017.9 3.2
19/12:26am 10.3 7.0 9.4 94 0.4 WSW 17 24 9 13 1017.8 1017.8 3.2
19/12:00am 10.4 6.7 9.5 94 0.5 W 19 22 10 12 1017.7 1017.7 3.0
 
Date/Time
EDT
Temp
°C
App
Temp
°C
Dew
Point
°C
Rel
Hum
%
Delta-T
°C
Wind Press
QNH
hPa
Press
MSL
hPa
Rain since
9am
mm
Dir  Spd
km/h
Gust
km/h
Spd
kts
Gust
kts
18/11:38pm 10.6 7.3 9.5 93 0.6 W 17 20 9 11 1017.7 1017.7 2.6
18/11:30pm 10.6 7.7 9.5 93 0.6 W 15 19 8 10 1017.7 1017.7 2.6
18/11:00pm 10.5 8.3 9.4 93 0.5 W 11 17 6 9 1017.6 1017.6 2.6
18/10:43pm 10.5 8.3 9.4 93 0.6 W 11 15 6 8 1017.6 1017.6 2.6
18/10:30pm 10.5 8.3 9.4 93 0.6 W 11 15 6 8 1017.5 1017.5 2.6
18/10:18pm 10.6 8.8 9.5 93 0.6 W 9 11 5 6 1017.5 1017.5 2.6
18/10:00pm 10.5 8.7 9.4 93 0.5 WNW 9 13 5 7 1017.4 1017.4 2.6
18/09:30pm 10.8 7.9 9.7 93 0.6 W 15 20 8 11 1017.0 1017.0 2.6
18/09:00pm 10.7 7.8 9.6 93 0.6 W 15 19 8 10 1016.6 1016.6 2.6
18/08:30pm 10.8 7.2 9.7 93 0.6 WNW 19 24 10 13 1016.0 1016.0 2.6
18/08:00pm 10.9 8.8 9.8 93 0.6 WNW 11 15 6 8 1015.7 1015.7 2.6
18/07:30pm 10.9 8.0 9.7 92 0.6 WSW 15 20 8 11 1015.5 1015.5 2.0
18/07:00pm 11.4 7.7 9.5 88 1.0 WSW 19 28 10 15 1015.1 1015.0 0.6
18/06:30pm 12.4 8.3 8.5 77 1.9 SW 20 28 11 15 1014.5 1014.4 0.0
18/06:00pm 13.1 8.6 8.4 73 2.3 SW 22 32 12 17 1014.0 1013.9 0.0
18/05:30pm 13.8 8.9 8.4 70 2.7 SW 24 32 13 17 1013.6 1013.5 0.0
18/05:00pm 14.2 9.3 8.6 69 2.8 SW 24 32 13 17 1013.3 1013.2 0.0
18/04:30pm 15.0 10.4 9.6 70 2.8 SW 24 32 13 17 1012.7 1012.7 0.0
18/04:00pm 16.2 12.0 9.6 65 3.4 SW 22 32 12 17 1012.3 1012.3 0.0
18/03:30pm 17.4 14.4 10.5 64 3.7 W 17 22 9 12 1012.1 1012.1 0.0
18/03:00pm 17.2 13.5 10.1 63 3.8 W 20 26 11 14 1012.0 1012.0 0.0
18/02:30pm 18.1 15.4 11.7 66 3.5 WSW 17 20 9 11 1011.9 1011.9 0.0
18/02:00pm 17.9 15.4 11.0 64 3.7 W 15 19 8 10 1012.0 1012.0 0.0
18/01:30pm 17.8 15.8 11.4 66 3.5 W 13 17 7 9 1012.1 1012.1 0.0
18/01:00pm 18.0 15.1 10.9 63 3.8 WSW 17 22 9 12 1012.3 1012.3 0.0
18/12:30pm 18.0 16.2 10.9 63 3.8 W 11 20 6 11 1012.5 1012.5 0.0
18/12:00pm 16.9 15.8 10.7 67 3.3 WNW 7 15 4 8 1012.7 1012.7 0.0
18/11:30am 15.6 13.9 9.7 68 3.1 WSW 9 15 5 8 1012.9 1012.9 0.0
18/11:00am 15.4 13.8 10.2 71 2.7 WSW 9 15 5 8 1013.0 1013.0 0.0
18/10:30am 14.3 13.6 10.1 76 2.2 NW 4 9 2 5 1013.0 1013.0 0.0
18/10:00am 13.4 13.2 10.6 83 1.5 WNW 2 6 1 3 1013.0 1013.0 0.0
18/09:30am 12.2 11.3 10.6 90 0.8 SW 6 7 3 4 1013.0 1013.0 0.0
18/09:00am 10.9 9.8 10.1 95 0.4 WSW 6 9 3 5 1013.0 1013.0 0.0
18/08:30am 10.1 8.3 9.6 97 0.3 SW 9 11 5 6 1013.1 1013.1 0.0
18/08:04am 9.0 8.7 8.6 97 0.2 CALM 0 0 0 0 1012.8 1012.8 0.0
18/08:00am 8.8 8.4 8.4 97 0.2 CALM 0 0 0 0 1012.7 1012.7 0.0
18/07:30am 8.1 7.1 7.5 96 0.3 WNW 2 6 1 3 1012.6 1012.6 0.0
18/07:00am 7.5 6.4 6.9 96 0.3 NW 2 7 1 4 1012.3 1012.3 0.0
18/06:30am 6.9 6.1 6.3 96 0.3 CALM 0 0 0 0 1012.3 1012.3 0.0
18/06:00am 6.5 4.4 5.9 96 0.3 W 6 9 3 5 1011.9 1011.9 0.0
18/05:30am 5.8 4.3 5.1 95 0.3 W 2 6 1 3 1011.8 1011.8 0.0
18/05:00am 6.2 5.2 5.5 95 0.3 CALM 0 0 0 0 1011.8 1011.8 0.0
18/04:30am 6.2 5.2 5.5 95 0.3 CALM 0 0 0 0 1012.0 1012.0 0.0
18/04:00am 6.1 5.1 5.4 95 0.3 CALM 0 4 0 2 1012.1 1012.1 0.0
18/03:30am 5.6 3.3 4.7 94 0.4 N 6 7 3 4 1012.2 1012.2 0.0
18/03:25am 5.6 3.3 4.7 94 0.4 N 6 7 3 4 1012.3 1012.3 0.0
18/03:00am 6.5 4.4 5.6 94 0.4 ENE 6 7 3 4 1012.5 1012.5 0.0
18/02:45am 7.0 5.7 6.1 94 0.4 E 2 7 1 4 1012.7 1012.7 0.0
18/02:30am 7.1 5.8 6.2 94 0.4 E 2 6 1 3 1012.9 1012.9 0.0
18/02:24am 6.9 5.2 6.0 94 0.4 E 4 6 2 3 1012.9 1012.9 0.0
18/02:04am 6.7 4.6 5.7 93 0.4 ENE 6 9 3 5 1013.1 1013.1 0.0
18/02:00am 6.8 4.5 5.7 93 0.5 NE 7 9 4 5 1013.3 1013.2 0.0
18/01:30am 7.1 5.0 5.7 91 0.6 E 6 7 3 4 1013.8 1013.7 0.0
18/01:00am 8.7 7.0 7.6 93 0.5 E 6 9 3 5 1014.1 1014.0 0.0
18/12:30am 7.6 6.7 6.2 91 0.6 CALM 0 4 0 2 1014.3 1014.2 0.0
18/12:00am 8.1 6.8 6.2 88 0.9 ENE 2 6 1 3 1014.4 1014.3 0.0
 
Date/Time
EDT
Temp
°C
App
Temp
°C
Dew
Point
°C
Rel
Hum
%
Delta-T
°C
Wind Press
QNH
hPa
Press
MSL
hPa
Rain since
9am
mm
Dir  Spd
km/h
Gust
km/h
Spd
kts
Gust
kts
17/11:30pm 9.5 8.9 7.6 88 0.9 CALM 0 0 0 0 1014.6 1014.5 0.0
17/11:00pm 10.3 8.5 7.9 85 1.2 ESE 7 9 4 5 1014.7 1014.6 0.0
17/10:30pm 10.3 9.5 8.2 87 1.0 E 2 6 1 3 1014.9 1014.8 0.0
17/10:00pm 9.7 8.7 7.5 86 1.0 WNW 2 6 1 3 1014.8 1014.7 0.0
17/09:30pm 10.3 9.7 7.4 82 1.4 CALM 0 0 0 0 1014.8 1014.7 0.0
17/09:00pm 11.0 9.0 7.1 77 1.9 WSW 7 9 4 5 1014.3 1014.2 0.0
17/08:30pm 10.8 9.0 7.3 79 1.7 WSW 6 7 3 4 1013.8 1013.7 0.0
17/08:00pm 12.1 10.1 7.0 71 2.5 SW 7 9 4 5 1013.5 1013.4 0.0
17/07:30pm 13.3 10.1 6.9 65 3.1 SW 13 19 7 10 1012.9 1012.9 0.0
17/07:00pm 15.3 12.8 8.1 62 3.6 WSW 11 15 6 8 1012.6 1012.6 0.0
17/06:30pm 15.3 12.6 7.3 59 4.0 SW 11 15 6 8 1012.4 1012.4 0.0
17/06:00pm 15.2 11.8 7.5 60 3.8 SW 15 19 8 10 1012.2 1012.2 0.0
17/05:30pm 15.4 11.6 7.7 60 3.8 SW 17 22 9 12 1012.2 1012.2 0.0
17/05:00pm 15.6 11.8 7.6 59 4.0 SW 17 20 9 11 1012.2 1012.2 0.0
17/04:30pm 15.6 11.4 7.6 59 4.0 WSW 19 28 10 15 1012.1 1012.1 0.0
17/04:00pm 16.0 11.1 6.7 54 4.6 WSW 22 35 12 19 1012.3 1012.3 0.0
17/03:30pm 15.5 10.2 6.8 56 4.3 SW 24 32 13 17 1012.4 1012.4 0.0
17/03:00pm 16.4 11.7 7.6 56 4.4 WSW 22 30 12 16 1012.3 1012.3 0.0
17/02:30pm 16.8 12.5 8.0 56 4.5 SW 20 28 11 15 1012.6 1012.6 0.0
17/02:00pm 16.5 11.8 7.7 56 4.4 WSW 22 35 12 19 1013.0 1013.0 0.0
17/01:30pm 16.2 11.8 7.2 55 4.5 W 20 30 11 16 1013.1 1013.1 0.0
17/01:00pm 14.7 9.6 7.5 62 3.6 W 24 33 13 18 1013.7 1013.6 0.0
17/12:30pm 14.8 9.7 7.6 62 3.6 WNW 24 32 13 17 1013.8 1013.7 0.0
17/12:00pm 14.8 9.7 7.8 63 3.5 WNW 24 33 13 18 1014.1 1014.0 0.0
17/11:30am 14.4 9.1 8.4 67 3.0 WNW 26 32 14 17 1014.3 1014.2 0.0
17/11:00am 14.3 9.5 8.9 70 2.7 NW 24 32 13 17 1014.4 1014.3 0.0
17/10:30am 13.9 8.1 8.1 68 2.9 WNW 28 35 15 19 1014.5 1014.4 0.0
17/10:12am 14.0 8.8 9.0 72 2.5 WNW 26 33 14 18 1014.5 1014.4 0.0
17/10:00am 13.5 8.9 9.6 77 2.0 WNW 24 33 13 18 1014.5 1014.4 0.0
17/09:57am 13.0 7.7 8.5 74 2.2 WNW 26 37 14 20 1014.5 1014.4 0.0
17/09:30am 12.8 7.6 8.7 76 2.1 WNW 26 32 14 17 1014.5 1014.4 0.0
17/09:00am 11.9 7.4 8.6 80 1.6 WNW 22 28 12 15 1014.4 1014.3 0.6
17/08:30am 11.2 7.3 8.6 84 1.3 W 19 28 10 15 1014.3 1014.2 0.6
17/08:24am 10.9 7.3 8.5 85 1.2 W 17 24 9 13 1014.1 1014.0 0.6
17/08:00am 10.0 7.1 8.3 89 0.8 WSW 13 20 7 11 1014.0 1013.9 0.6
17/07:54am 10.0 6.4 8.3 89 0.8 WSW 17 24 9 13 1014.0 1013.9 0.6
17/07:30am 9.6 6.0 8.2 91 0.7 WNW 17 24 9 13 1013.6 1013.5 0.6
17/07:00am 8.9 5.5 7.7 92 0.6 W 15 20 8 11 1013.4 1013.3 0.6
17/06:30am 8.7 4.9 7.5 92 0.6 W 17 24 9 13 1013.0 1013.0 0.6
17/06:00am 8.5 4.7 7.4 93 0.5 WNW 17 24 9 13 1012.4 1012.4 0.6
17/05:30am 8.9 4.6 7.8 93 0.5 W 20 28 11 15 1012.4 1012.4 0.6
17/05:25am 9.0 4.7 7.9 93 0.5 W 20 28 11 15 1012.4 1012.4 0.6
17/05:23am 9.0 4.7 7.9 93 0.5 W 20 24 11 13 1012.4 1012.4 0.6
17/05:03am 9.2 4.9 8.0 92 0.6 W 20 24 11 13 1012.5 1012.5 0.6
17/05:00am 9.2 5.1 8.0 92 0.6 W 19 24 10 13 1012.6 1012.6 0.6
17/04:59am 9.2 4.9 8.0 92 0.6 W 20 24 11 13 1012.5 1012.5 0.6
17/04:53am 9.3 5.3 8.1 92 0.6 W 19 24 10 13 1012.5 1012.5 0.6
17/04:49am 9.3 5.3 8.1 92 0.6 W 19 24 10 13 1012.5 1012.5 0.6
17/04:30am 9.1 4.8 7.9 92 0.6 WNW 20 24 11 13 1012.3 1012.3 0.4
17/04:00am 9.3 4.3 7.9 91 0.7 W 24 33 13 18 1012.1 1012.1 0.4
17/03:30am 8.9 5.2 7.8 93 0.5 W 17 22 9 12 1012.1 1012.1 0.4
17/03:00am 9.1 5.0 7.9 92 0.6 WNW 19 24 10 13 1012.0 1012.0 0.4
17/02:30am 9.5 5.3 8.4 93 0.5 W 20 26 11 14 1012.0 1012.0 0.4
17/02:00am 9.1 4.8 7.9 92 0.6 W 20 28 11 15 1012.0 1012.0 0.4
17/01:34am 9.5 5.5 8.1 91 0.7 WNW 19 24 10 13 1012.3 1012.3 0.4
17/01:30am 9.5 5.5 8.1 91 0.7 WNW 19 24 10 13 1012.3 1012.3 0.4
17/01:16am 9.7 5.4 8.0 89 0.8 W 20 28 11 15 1012.5 1012.5 0.4
17/01:00am 9.9 5.8 7.7 86 1.1 W 19 24 10 13 1012.4 1012.4 0.4
17/12:30am 10.1 5.5 8.0 87 1.0 WNW 22 28 12 15 1012.3 1012.3 0.4
17/12:00am 10.0 6.0 8.3 89 0.8 W 19 26 10 14 1012.5 1012.5 0.4
 
Date/Time
EDT
Temp
°C
App
Temp
°C
Dew
Point
°C
Rel
Hum
%
Delta-T
°C
Wind Press
QNH
hPa
Press
MSL
hPa
Rain since
9am
mm
Dir  Spd
km/h
Gust
km/h
Spd
kts
Gust
kts
16/11:30pm 10.1 6.5 8.4 89 0.8 WSW 17 22 9 12 1012.6 1012.6 0.4
16/11:00pm 10.3 5.6 7.9 85 1.2 W 22 39 12 21 1012.2 1012.2 0.4
16/10:30pm 10.0 5.4 8.1 88 0.9 W 22 32 12 17 1012.1 1012.1 0.4
16/10:00pm 10.3 5.8 8.4 88 0.9 W 22 30 12 16 1012.0 1012.0 0.4
16/09:30pm 10.6 5.9 7.7 82 1.4 W 22 32 12 17 1011.6 1011.6 0.4
16/09:00pm 10.9 6.3 8.1 83 1.4 W 22 28 12 15 1011.1 1011.1 0.4
16/08:30pm 10.9 6.2 7.8 81 1.5 W 22 28 12 15 1010.9 1010.9 0.4
16/08:00pm 10.5 5.5 7.9 84 1.3 W 24 37 13 20 1010.3 1010.3 0.4
16/07:39pm 10.3 4.9 8.1 86 1.1 W 26 35 14 19 1010.0 1010.0 0.4
16/07:30pm 10.4 4.3 8.3 87 1.0 WSW 30 43 16 23 1009.8 1009.8 0.4
16/07:26pm 10.5 4.0 8.3 86 1.1 WSW 32 44 17 24 1009.8 1009.8 0.4
16/07:00pm 10.5 4.3 7.9 84 1.3 WSW 30 41 16 22 1009.4 1009.4 0.2
16/06:54pm 10.6 4.1 8.0 84 1.3 WSW 32 41 17 22 1009.3 1009.3 0.2
16/06:45pm 10.5 4.1 8.6 88 0.9 WSW 32 50 17 27 1009.2 1009.2 0.2
16/06:34pm 10.8 3.1 8.6 86 1.1 WSW 39 50 21 27 1009.1 1009.1 0.2
16/06:30pm 11.2 4.3 8.8 85 1.2 WSW 35 50 19 27 1009.1 1009.1 0.2
16/06:00pm 12.5 6.8 8.4 76 2.0 W 28 35 15 19 1008.7 1008.7 0.2
16/05:30pm 12.4 6.5 9.2 81 1.6 SW 30 37 16 20 1008.4 1008.4 0.2
16/05:00pm 13.1 5.2 7.8 70 2.6 WSW 39 52 21 28 1007.9 1007.9 0.2
16/04:51pm 13.0 6.5 8.9 76 2.1 WSW 33 52 18 28 1007.9 1007.9 0.2
16/04:30pm 13.4 6.3 8.0 70 2.7 WSW 35 48 19 26 1007.8 1007.8 0.2
16/04:00pm 12.4 4.7 8.5 77 1.9 WSW 39 59 21 32 1007.8 1007.8 0.2
16/03:46pm 14.4 8.0 8.4 67 3.0 W 32 50 17 27 1007.6 1007.6 0.2
16/03:30pm 13.2 6.3 8.9 75 2.2 WSW 35 46 19 25 1007.7 1007.7 0.2
16/03:00pm 13.8 7.2 8.4 70 2.7 WSW 33 43 18 23 1007.6 1007.6 0.2
16/02:30pm 12.6 6.6 8.7 77 2.0 W 30 41 16 22 1007.6 1007.6 0.2
16/02:00pm 14.8 7.0 8.3 65 3.3 WSW 39 50 21 27 1007.3 1007.3 0.2
16/01:35pm 14.7 7.1 7.7 63 3.5 WSW 37 56 20 30 1007.1 1007.1 0.0
16/01:30pm 14.8 7.3 7.8 63 3.5 WSW 37 52 20 28 1007.2 1007.2 0.0
16/01:05pm 14.5 6.6 8.0 65 3.2 WSW 39 57 21 31 1006.9 1006.9 0.0
16/01:00pm 14.6 6.3 7.9 64 3.4 WSW 41 57 22 31 1006.8 1006.8 0.0
16/12:33pm 15.6 8.4 9.3 66 3.3 WSW 37 56 20 30 1006.5 1006.5 0.0
16/12:30pm 15.2 7.6 8.9 66 3.2 WSW 39 56 21 30 1006.5 1006.5 0.0
16/12:00pm 14.0 6.4 9.0 72 2.5 WSW 39 57 21 31 1006.7 1006.7 0.0
16/11:52am 13.9 6.2 8.7 71 2.6 WSW 39 57 21 31 1006.8 1006.8 0.0
16/11:30am 13.0 4.9 8.5 74 2.2 WSW 41 56 22 30 1006.5 1006.5 0.0
16/11:03am 13.1 5.2 8.0 71 2.5 WSW 39 57 21 31 1006.5 1006.5 0.0
16/11:00am 13.2 5.8 8.3 72 2.4 WSW 37 52 20 28 1006.5 1006.5 0.0
16/10:50am 12.8 5.8 8.3 74 2.2 WSW 35 54 19 29 1006.4 1006.4 0.0
16/10:30am 12.5 5.8 8.2 75 2.1 WSW 33 46 18 25 1006.0 1006.0 0.0
16/10:00am 12.0 4.3 8.5 79 1.7 WSW 39 52 21 28 1005.8 1005.8 0.0
16/09:30am 11.7 4.9 9.4 86 1.2 WSW 35 46 19 25 1005.4 1005.4 0.0
16/09:07am 11.7 5.1 8.7 82 1.5 WSW 33 46 18 25 1005.0 1005.0 0.0
16/09:00am 11.4 5.1 8.8 84 1.3 W 32 46 17 25 1004.9 1004.9 4.8
16/08:57am 11.4 5.1 9.0 85 1.2 W 32 46 17 25 1004.8 1004.8 4.8
16/08:33am 11.3 5.1 9.4 88 1.0 WSW 32 48 17 26 1004.4 1004.4 4.8
16/08:30am 11.3 4.5 9.2 87 1.1 WSW 35 54 19 29 1004.4 1004.4 4.8
16/08:29am 11.4 4.6 9.1 86 1.2 WSW 35 54 19 29 1004.4 1004.4 4.8
16/08:28am 11.4 4.2 9.1 86 1.2 WSW 37 54 20 29 1004.4 1004.4 4.8
16/08:26am 11.5 4.3 9.1 85 1.2 WSW 37 54 20 29 1004.3 1004.3 4.8
16/08:21am 11.6 5.2 9.2 85 1.2 WSW 33 54 18 29 1004.2 1004.2 4.8
16/08:00am 11.1 4.8 9.0 87 1.1 W 32 43 17 23 1003.8 1003.8 4.8
16/07:37am 11.2 4.7 9.1 87 1.0 W 33 54 18 29 1003.4 1003.4 4.8
16/07:30am 11.1 5.2 9.2 88 1.0 W 30 39 16 21 1003.2 1003.2 4.8
16/07:26am 11.1 4.9 9.2 88 1.0 WSW 32 44 17 24 1003.1 1003.1 4.8
16/07:20am 11.2 4.4 9.1 87 1.0 WSW 35 48 19 26 1003.0 1003.0 4.8
16/07:10am 11.2 3.6 9.1 87 1.0 WSW 39 52 21 28 1002.7 1002.7 4.8
16/07:03am 11.1 4.0 9.4 89 0.9 WSW 37 46 20 25 1002.4 1002.4 4.8
16/07:00am 11.0 4.2 9.4 90 0.8 WSW 35 44 19 24 1002.4 1002.4 4.8
16/06:59am 11.0 4.2 9.4 90 0.8 WSW 35 44 19 24 1002.4 1002.4 4.8
16/06:36am 11.1 4.9 9.5 90 0.8 WSW 32 43 17 23 1001.9 1001.9 4.6
16/06:30am 11.2 5.1 9.6 90 0.8 WSW 32 44 17 24 1001.8 1001.8 4.6
16/06:00am 11.4 5.1 9.7 89 0.9 WSW 33 46 18 25 1001.2 1001.2 4.6
16/05:30am 11.6 5.0 9.9 89 0.9 WSW 35 46 19 25 1000.5 1000.5 4.6
16/05:22am 11.7 5.0 9.8 88 1.0 WSW 35 46 19 25 1000.4 1000.4 4.6
16/05:15am 11.6 4.6 9.9 89 0.9 WSW 37 56 20 30 1000.2 1000.1 4.4
16/05:02am 11.6 5.4 10.2 91 0.7 WSW 33 46 18 25 1000.1 1000.0 4.4
16/05:00am 11.7 5.6 10.3 91 0.7 WSW 33 44 18 24 1000.1 1000.0 4.4
16/04:58am 11.7 5.6 10.3 91 0.7 WSW 33 44 18 24 1000.0 999.9 4.4

Other formats

Comma delimited format used in spreadsheet applications
http://www.bom.gov.au/fwo/IDV60801/IDV60801.94891.axf

JavaScript Object Notation format (JSON) in row-major order
http://www.bom.gov.au/fwo/IDV60801/IDV60801.94891.json

Data quality

Most of these data are generated automatically and are frequently updated. Quality checks on data are not normally performed. It is possible for incorrect values to appear. Refer to information at About Latest Weather Observations and please check the disclaimer before using these data.